Brighton, New York
Current Conditions -  °F | °C
As of 5:54 PM on Friday 28 Nov 2014 (Local Time) from KROC Reporting Station
Broken Clouds Broken Clouds  
Wind Chill: 19°   Ceiling: 4000
Heat Index: 25°   Visibility: 10mi
Dew Point: 14°   Wind: 5mph
Humidity: 63%   Direction: 250°WSW
Pressure: 30.22"   Gusts: NA
Location:  43.13°N, 77.57°W
Report Text: KROC 282254Z 25004KT 10SM BKN040 M04/M10 A3022 RMK AO2 SLP245 T10391100
Loading
Personal Weather Stations






























Interactive Weather Map New forecast layout! Learn more

10-Day Weather Forecast

Advertisements
Track Severe Weather on mobile